Main page


Airports :

Yeovilton, England

RNAS Yeovilton (HMS Heron)

latitude: 51-00N, longitude: 002-38W, elevation: 23 m

Current weather observation

The report was made 51 minutes ago, at 16:50 UTC
Wind 12 kt from the North
Temperature 8°C
Humidity 61%
Pressure 1031 hPa
Visibility 10 km or more
Few clouds at a height of 3500 ft
Broken clouds at a height of 3900 ft

METAR: EGDY 201650Z 36012KT 9999 FEW035 BKN039 08/01 Q1031 BLU NOSIG

Time: 17:41 (17:41 UTC)


The report was made 3 hours and 49 minutes ago, at 13:52 UTC
Forecast valid from 20 at 15 UTC to 20 at 24 UTC
Wind 10 kt from the North
Visibility 10 km or more
Scattered clouds at a height of 3000 ft
Probability 30%
from 20 at 22 UTC to 20 at 24 UTC
Visibility: 3000 m
Few clouds at a height of 2000 ft

TAF: EGDY 201352Z 2015/2024 35010KT 9999 SCT030 PROB30 2022/2024 3000 BR FEW020

Weather observations and forecasts of more than 4000 airports (METAR and TAF reports).

The available stations are represented by yellow and red dots on the map.

Hover mouse over dot to see the name of the station.

Then click to see weather observations and forecasts.

To change the map : click on the green buttons with a black cross to zoom in, on the green button with a dash to zoom out, or on the green arrows for adjacent maps.